createdAt,value
2023-04-03T00:01:17.573Z,56.64
2023-04-03T00:06:14.361Z,56.69
2023-04-03T00:11:15.614Z,56.57
2023-04-03T00:16:13.518Z,56.90
2023-04-03T00:21:14.051Z,56.75
2023-04-03T00:26:11.489Z,56.47
2023-04-03T00:31:10.728Z,56.66
2023-04-03T00:36:10.252Z,56.61
2023-04-03T00:41:07.478Z,56.60
2023-04-03T00:46:04.835Z,56.80
2023-04-03T00:51:03.288Z,56.63
2023-04-03T00:56:01.260Z,56.92
2023-04-03T01:00:59.861Z,56.94
2023-04-03T01:05:56.994Z,56.92
2023-04-03T01:10:53.777Z,57.04
2023-04-03T01:15:53.225Z,57.00
2023-04-03T01:21:37.788Z,57.07
2023-04-03T01:26:36.053Z,57.05
2023-04-03T01:31:44.538Z,57.18
2023-04-03T01:36:43.981Z,57.00
2023-04-03T01:41:41.694Z,57.09
2023-04-03T01:46:45.083Z,57.03
2023-04-03T01:51:42.456Z,57.37
2023-04-03T01:56:40.128Z,57.29
2023-04-03T02:01:38.281Z,57.08
2023-04-03T02:06:35.908Z,57.43
2023-04-03T02:11:32.804Z,57.67
2023-04-03T02:16:29.665Z,57.66
2023-04-03T02:21:26.605Z,57.82
2023-04-03T02:26:25.347Z,57.81
2023-04-03T02:31:22.682Z,57.96
2023-04-03T02:36:19.448Z,58.12
2023-04-03T02:41:22.399Z,58.16
2023-04-03T02:46:22.537Z,58.37
2023-04-03T02:51:19.366Z,58.13
2023-04-03T02:56:17.501Z,58.41
2023-04-03T03:01:15.020Z,58.56
2023-04-03T03:06:14.401Z,58.75
2023-04-03T03:11:11.985Z,58.80
2023-04-03T03:16:08.978Z,58.96
2023-04-03T03:21:06.206Z,58.99
2023-04-03T03:26:06.248Z,59.16
2023-04-03T03:31:05.312Z,59.57
2023-04-03T03:36:03.017Z,59.20
2023-04-03T03:41:00.043Z,59.46
2023-04-03T03:45:58.362Z,59.71
2023-04-03T03:50:57.123Z,59.93
2023-04-03T03:55:58.410Z,60.02
2023-04-03T04:00:57.210Z,60.33
2023-04-03T04:05:55.192Z,61.21
2023-04-03T04:10:52.248Z,63.21
2023-04-03T04:15:49.499Z,64.49
2023-04-03T04:20:47.710Z,65.94
2023-04-03T04:25:48.103Z,66.90
2023-04-03T04:30:48.425Z,67.00
2023-04-03T04:35:50.604Z,66.50
2023-04-03T04:40:51.169Z,66.21
2023-04-03T04:45:48.582Z,65.73
2023-04-03T04:50:48.952Z,65.20
2023-04-03T04:55:46.606Z,64.87
2023-04-03T05:00:44.300Z,63.37
2023-04-03T05:05:41.596Z,61.96
2023-04-03T05:10:41.187Z,60.99
2023-04-03T05:15:41.910Z,60.19
2023-04-03T05:20:43.700Z,59.90
2023-04-03T05:25:41.465Z,59.16
2023-04-03T05:30:39.731Z,55.05
2023-04-03T05:35:39.733Z,48.95
2023-04-03T05:40:45.273Z,45.91
2023-04-03T05:45:46.850Z,41.44
2023-04-03T05:50:46.771Z,37.04
2023-04-03T05:55:50.195Z,35.04
2023-04-03T06:00:47.500Z,33.74
2023-04-03T06:05:44.562Z,35.36
2023-04-03T06:10:42.359Z,36.11
2023-04-03T06:15:45.848Z,36.16
2023-04-03T06:20:44.754Z,36.23
2023-04-03T06:25:42.402Z,35.46
2023-04-03T06:30:39.356Z,35.56
2023-04-03T06:35:38.892Z,34.40
2023-04-03T06:40:36.581Z,32.34
2023-04-03T06:45:35.051Z,29.83
2023-04-03T06:50:33.649Z,29.15
2023-04-03T06:55:32.101Z,27.07
2023-04-03T07:00:31.934Z,26.81
2023-04-03T07:05:30.109Z,25.96
2023-04-03T07:10:27.270Z,25.64
2023-04-03T07:15:25.173Z,25.24
2023-04-03T07:20:22.017Z,25.49
2023-04-03T07:25:18.901Z,26.29
2023-04-03T07:30:19.254Z,26.71
2023-04-03T07:35:23.872Z,26.93
2023-04-03T07:40:21.521Z,30.06
2023-04-03T07:45:18.393Z,32.32
2023-04-03T07:50:16.381Z,33.79
2023-04-03T07:55:13.284Z,35.20
2023-04-03T08:00:12.495Z,35.93
2023-04-03T08:05:09.802Z,36.38
2023-04-03T08:10:08.315Z,37.03
2023-04-03T08:15:06.077Z,38.74
2023-04-03T08:20:03.923Z,39.09
2023-04-03T08:25:01.835Z,38.97
2023-04-03T08:29:59.317Z,38.68
2023-04-03T08:34:56.238Z,37.54
2023-04-03T08:39:53.732Z,38.35
2023-04-03T08:44:58.028Z,38.90
2023-04-03T08:50:00.246Z,38.42
2023-04-03T08:55:01.378Z,39.27
2023-04-03T09:00:01.653Z,39.56
2023-04-03T09:04:59.268Z,39.97
2023-04-03T09:09:59.311Z,42.26
2023-04-03T09:15:09.593Z,43.32
2023-04-03T09:20:26.461Z,44.52
2023-04-03T09:25:26.465Z,45.18
2023-04-03T09:30:29.878Z,45.15
2023-04-03T09:35:40.633Z,45.29
2023-04-03T09:40:47.703Z,46.35
2023-04-03T09:45:46.047Z,46.74
2023-04-03T09:50:57.040Z,46.64
2023-04-03T09:55:53.828Z,46.41
2023-04-03T10:00:57.960Z,46.92
2023-04-03T10:05:55.957Z,46.50
2023-04-03T10:11:12.269Z,46.88
2023-04-03T10:16:15.024Z,47.08
2023-04-03T10:21:27.078Z,46.31
2023-04-03T10:26:35.224Z,45.81
2023-04-03T10:31:47.192Z,45.25
2023-04-03T10:36:50.570Z,45.39
2023-04-03T10:42:09.338Z,44.07
2023-04-03T10:47:19.610Z,42.06
2023-04-03T10:52:23.218Z,40.38
2023-04-03T10:57:23.328Z,41.17
2023-04-03T11:02:31.066Z,41.87
2023-04-03T11:07:36.402Z,41.46
2023-04-03T11:12:42.671Z,42.02
2023-04-03T11:17:46.957Z,41.90
2023-04-03T11:22:48.180Z,41.94
2023-04-03T11:27:48.185Z,41.84
2023-04-03T11:33:11.287Z,41.93
2023-04-03T11:38:19.609Z,42.23
2023-04-03T11:43:23.512Z,41.38
2023-04-03T11:48:54.674Z,42.79
2023-04-03T11:53:52.874Z,42.15
2023-04-03T11:59:32.098Z,42.79
2023-04-03T12:04:34.491Z,43.20
2023-04-03T12:10:30.434Z,42.25
2023-04-03T12:15:55.788Z,43.70
2023-04-03T12:20:57.955Z,44.93
2023-04-03T12:26:10.647Z,43.74
2023-04-03T12:31:12.456Z,44.82
2023-04-03T12:36:16.444Z,44.91
2023-04-03T12:41:29.598Z,45.24
2023-04-03T12:46:38.760Z,45.43
2023-04-03T12:51:45.878Z,45.52
2023-04-03T12:56:47.985Z,46.32
2023-04-03T13:01:59.573Z,46.48
2023-04-03T13:07:00.924Z,46.86
2023-04-03T13:12:02.254Z,46.08
2023-04-03T13:17:00.965Z,46.43
2023-04-03T13:22:06.996Z,46.33
2023-04-03T13:27:07.013Z,46.87
2023-04-03T13:32:07.004Z,48.22
2023-04-03T13:37:05.419Z,49.37
2023-04-03T13:42:16.464Z,49.96
2023-04-03T13:47:20.543Z,50.58
2023-04-03T13:52:30.299Z,51.20
2023-04-03T13:57:28.428Z,51.70
2023-04-03T14:02:35.221Z,51.87
2023-04-03T14:07:38.087Z,52.41
2023-04-03T14:12:37.986Z,52.88
2023-04-03T14:18:08.806Z,53.87
2023-04-03T14:28:23.660Z,54.33
2023-04-03T14:33:27.759Z,54.43
2023-04-03T14:38:27.238Z,54.99
2023-04-03T14:43:24.523Z,55.23
2023-04-03T14:48:24.181Z,55.30
2023-04-03T14:53:37.783Z,55.63
2023-04-03T14:58:36.808Z,56.05
2023-04-03T15:03:34.378Z,56.57
2023-04-03T15:08:31.239Z,57.19
2023-04-03T15:13:27.963Z,57.72
2023-04-03T15:18:28.980Z,58.08
2023-04-03T15:23:30.293Z,58.81
2023-04-03T15:28:33.268Z,59.49
2023-04-03T15:33:31.148Z,59.98
2023-04-03T15:38:28.846Z,61.09
2023-04-03T15:43:26.129Z,61.43
2023-04-03T15:48:29.580Z,61.71
2023-04-03T15:53:26.627Z,62.29
2023-04-03T15:58:24.306Z,62.62
2023-04-03T16:03:22.609Z,62.83
2023-04-03T16:08:20.143Z,63.14
2023-04-03T16:13:16.880Z,63.67
2023-04-03T16:18:15.879Z,64.12
2023-04-03T16:23:12.749Z,64.56
2023-04-03T16:28:15.606Z,64.51
2023-04-03T16:33:15.567Z,64.92
2023-04-03T16:38:12.645Z,65.65
2023-04-03T16:43:09.793Z,66.22
2023-04-03T16:48:06.935Z,67.21
2023-04-03T16:53:04.767Z,68.68
2023-04-03T16:58:01.973Z,70.82
2023-04-03T17:02:59.218Z,73.54
2023-04-03T17:07:56.321Z,76.08
2023-04-03T17:12:55.808Z,78.69
2023-04-03T17:17:55.982Z,81.11
2023-04-03T17:22:54.207Z,83.72
2023-04-03T17:27:51.108Z,84.61
2023-04-03T17:32:49.189Z,86.28
2023-04-03T17:37:49.249Z,86.87
2023-04-03T17:42:46.188Z,86.94
2023-04-03T17:47:43.100Z,85.88
2023-04-03T17:52:40.901Z,83.75
2023-04-03T17:57:38.333Z,83.86
2023-04-03T18:02:35.610Z,84.09
2023-04-03T18:07:32.642Z,86.07
2023-04-03T18:12:30.989Z,87.62
2023-04-03T18:17:28.052Z,88.08
2023-04-03T18:22:25.395Z,88.02
2023-04-03T18:27:26.505Z,88.17
2023-04-03T18:32:24.289Z,88.24
2023-04-03T18:37:23.236Z,87.41
2023-04-03T18:42:25.313Z,87.01
2023-04-03T18:47:24.273Z,87.01
2023-04-03T18:52:24.658Z,86.95
2023-04-03T18:57:21.416Z,86.66
2023-04-03T19:02:21.382Z,87.43
2023-04-03T19:07:19.033Z,87.50
2023-04-03T19:12:16.682Z,86.47
2023-04-03T19:17:13.796Z,86.53
2023-04-03T19:22:11.634Z,86.12
2023-04-03T19:27:08.535Z,86.03
2023-04-03T19:32:12.097Z,86.18
2023-04-03T19:37:14.268Z,87.48
2023-04-03T19:42:12.255Z,88.86
2023-04-03T19:47:12.868Z,90.28
2023-04-03T19:52:09.702Z,90.60
2023-04-03T19:57:07.457Z,90.77
2023-04-03T20:02:04.416Z,89.79
2023-04-03T20:07:02.400Z,90.19
2023-04-03T20:12:00.764Z,88.96
2023-04-03T20:16:57.807Z,89.87
2023-04-03T20:21:58.398Z,90.30
2023-04-03T20:26:58.014Z,91.30
2023-04-03T20:31:55.478Z,91.39
2023-04-03T20:36:52.888Z,92.47
2023-04-03T20:41:50.239Z,92.64
2023-04-03T20:46:52.729Z,92.94
2023-04-03T20:51:50.972Z,92.92
2023-04-03T20:56:49.049Z,92.41
2023-04-03T21:01:46.993Z,92.94
2023-04-03T21:07:22.125Z,93.23
2023-04-03T21:12:55.920Z,93.50
2023-04-03T21:18:16.534Z,93.13
2023-04-03T21:23:13.693Z,93.97
2023-04-03T21:28:10.750Z,94.83
2023-04-03T21:33:09.886Z,93.96
2023-04-03T21:38:08.484Z,93.60
2023-04-03T21:43:05.440Z,93.57
2023-04-03T21:48:03.237Z,93.09
2023-04-03T21:53:01.404Z,93.33
2023-04-03T21:57:58.868Z,91.12
2023-04-03T22:03:04.142Z,89.51
2023-04-03T22:08:06.628Z,89.71
2023-04-03T22:13:03.532Z,90.93
2023-04-03T22:18:00.476Z,91.13
2023-04-03T22:22:57.605Z,92.24
2023-04-03T22:27:55.131Z,91.28
2023-04-03T22:32:51.926Z,91.51
2023-04-03T22:37:48.700Z,92.24
2023-04-03T22:42:48.355Z,91.54
2023-04-03T22:47:46.215Z,90.84
2023-04-03T22:52:43.068Z,91.47
2023-04-03T22:57:39.882Z,90.65
2023-04-03T23:02:36.823Z,92.19
2023-04-03T23:07:34.364Z,92.57
2023-04-03T23:12:36.428Z,91.71
2023-04-03T23:17:37.507Z,91.76
2023-04-03T23:22:35.746Z,91.62
2023-04-03T23:27:32.702Z,91.27
2023-04-03T23:32:30.233Z,92.11
2023-04-03T23:37:27.360Z,91.52
2023-04-03T23:42:24.822Z,92.05
2023-04-03T23:47:21.660Z,92.18
2023-04-03T23:52:19.393Z,90.02
2023-04-03T23:57:16.388Z,89.59
